KLAA/LAA METAR and TAF weather

Enter ICAO airport designator
Station Type Date Time Source
KLAA METAR 2019/04/25 15:53 UTC NOAA

KLAA 251553Z AUTO 34017G24KT 10SM CLR 16/04 A3015 RMK AO2 PK WND 36030/1455 SLP185 T01610039


Station Type Date Time Source
KLAA Decoded METAR 2019/04/25 15:53 UTC NOAA

LAMAR MUNICIPAL AIRPORT, CO, United States (KLAA) 38-04N 102-41W 1119M
Apr 25, 2019 - 11:53 AM EDT / 2019.04.25 1553 UTC
Wind: from the NNW (340 degrees) at 20 MPH (17 KT) gusting to 28 MPH (24 KT):0
Visibility: 10 mile(s):0
Sky conditions: clear
Temperature: 61.0 F (16.1 C)
Dew Point: 39.0 F (3.9 C)
Relative Humidity: 44%
Pressure (altimeter): 30.15 in. Hg (1020 hPa)
ob: KLAA 251553Z AUTO 34017G24KT 10SM CLR 16/04 A3015 RMK AO2 PK WND 36030/1455 SLP185 T01610039
cycle: 16

Station Type Date Time Source
KLAA TAF UTC NOAA

Error!

Example: see airport list